createdAt,value
2023-03-03T00:02:03.989Z,21.9
2023-03-03T00:07:57.040Z,21.9
2023-03-03T00:13:49.884Z,21.9
2023-03-03T00:19:43.456Z,21.9
2023-03-03T00:25:36.447Z,21.9
2023-03-03T00:30:58.215Z,21.8
2023-03-03T00:36:34.848Z,21.9
2023-03-03T00:42:27.831Z,21.9
2023-03-03T00:48:20.797Z,21.9
2023-03-03T00:54:14.658Z,21.9
2023-03-03T00:59:36.910Z,21.8
2023-03-03T01:05:30.316Z,21.8
2023-03-03T01:11:07.386Z,21.8
2023-03-03T01:16:45.764Z,21.8
2023-03-03T01:22:23.718Z,21.8
2023-03-03T01:27:45.051Z,21.8
2023-03-03T01:33:07.373Z,21.8
2023-03-03T01:38:44.305Z,21.8
2023-03-03T01:44:21.202Z,21.8
2023-03-03T01:49:42.369Z,21.8
2023-03-03T01:55:04.124Z,21.8
2023-03-03T02:00:24.922Z,21.8
2023-03-03T02:05:47.306Z,21.8
2023-03-03T02:11:09.702Z,21.8
2023-03-03T02:16:30.877Z,21.8
2023-03-03T02:21:37.047Z,21.8
2023-03-03T02:26:43.080Z,21.8
2023-03-03T02:32:04.093Z,21.8
2023-03-03T02:37:41.950Z,21.8
2023-03-03T02:43:19.247Z,21.8
2023-03-03T02:49:11.567Z,21.8
2023-03-03T02:54:48.840Z,21.8
2023-03-03T03:00:26.281Z,21.8
2023-03-03T03:06:02.974Z,21.8
2023-03-03T03:11:24.457Z,21.8
2023-03-03T03:17:01.822Z,21.8
2023-03-03T03:22:38.845Z,21.8
2023-03-03T03:28:16.470Z,21.8
2023-03-03T03:34:09.840Z,21.8
2023-03-03T03:39:45.862Z,21.8
2023-03-03T03:45:23.034Z,21.8
2023-03-03T03:51:15.517Z,21.8
2023-03-03T03:56:52.702Z,21.8
2023-03-03T04:02:30.646Z,21.8
2023-03-03T04:08:23.540Z,21.8
2023-03-03T04:14:15.817Z,21.8
2023-03-03T04:19:57.344Z,21.8
2023-03-03T04:25:50.387Z,21.8
2023-03-03T04:31:45.958Z,21.8
2023-03-03T04:37:20.605Z,21.8
2023-03-03T04:43:15.792Z,21.8
2023-03-03T04:49:09.373Z,21.7
2023-03-03T04:55:03.610Z,21.8
2023-03-03T05:00:40.426Z,21.8
2023-03-03T05:06:19.233Z,21.7
2023-03-03T05:12:12.466Z,21.7
2023-03-03T05:18:05.683Z,21.7
2023-03-03T05:23:58.395Z,21.7
2023-03-03T05:29:51.697Z,21.7
2023-03-03T05:35:45.572Z,21.8
2023-03-03T05:41:23.245Z,21.7
2023-03-03T05:47:16.639Z,21.8
2023-03-03T05:53:09.771Z,21.7
2023-03-03T05:59:02.137Z,21.7
2023-03-03T06:04:55.975Z,21.7
2023-03-03T06:10:33.964Z,21.7
2023-03-03T06:16:28.252Z,21.7
2023-03-03T06:22:22.588Z,21.7
2023-03-03T06:28:15.897Z,21.7
2023-03-03T06:33:53.276Z,21.7
2023-03-03T06:39:46.895Z,21.7
2023-03-03T06:45:40.169Z,21.7
2023-03-03T06:51:17.531Z,21.7
2023-03-03T06:57:10.547Z,21.7
2023-03-03T07:02:49.740Z,21.7
2023-03-03T07:08:41.704Z,21.7
2023-03-03T07:14:37.557Z,21.6
2023-03-03T07:20:31.884Z,21.6
2023-03-03T07:26:25.074Z,21.6
2023-03-03T07:32:02.366Z,21.6
2023-03-03T07:37:56.398Z,21.6
2023-03-03T07:43:52.533Z,21.6
2023-03-03T07:49:45.755Z,21.6
2023-03-03T07:55:38.894Z,21.6
2023-03-03T08:01:31.383Z,21.6
2023-03-03T08:07:10.679Z,21.6
2023-03-03T08:13:03.897Z,21.6
2023-03-03T08:18:56.972Z,21.6
2023-03-03T08:24:49.995Z,21.6
2023-03-03T08:30:42.795Z,21.6
2023-03-03T08:37:02.155Z,21.6
2023-03-03T08:42:55.810Z,21.6
2023-03-03T08:48:49.602Z,21.6
2023-03-03T08:54:42.710Z,21.6
2023-03-03T09:00:49.727Z,21.6
2023-03-03T09:06:44.712Z,21.6
2023-03-03T09:12:36.767Z,21.6
2023-03-03T09:18:30.184Z,21.6
2023-03-03T09:24:24.022Z,21.6
2023-03-03T09:30:16.933Z,21.6
2023-03-03T09:36:10.386Z,21.6
2023-03-03T09:42:03.730Z,21.6
2023-03-03T09:47:43.894Z,21.6
2023-03-03T09:53:42.691Z,21.6
2023-03-03T09:59:53.940Z,21.6
2023-03-03T10:05:52.172Z,21.6
2023-03-03T10:11:45.883Z,21.6
2023-03-03T10:17:40.046Z,21.6
2023-03-03T10:23:45.077Z,21.6
2023-03-03T10:29:52.330Z,21.6
2023-03-03T10:36:30.451Z,21.6
2023-03-03T10:42:23.470Z,21.6
2023-03-03T10:48:34.046Z,21.5
2023-03-03T10:54:27.503Z,21.6
2023-03-03T11:00:33.699Z,21.5
2023-03-03T11:06:28.905Z,21.5
2023-03-03T11:12:10.971Z,21.6
2023-03-03T11:18:03.249Z,21.5
2023-03-03T11:23:57.920Z,21.5
2023-03-03T11:29:51.569Z,21.5
2023-03-03T11:35:45.489Z,21.5
2023-03-03T11:41:23.874Z,21.5
2023-03-03T11:47:33.274Z,21.5
2023-03-03T11:53:26.084Z,21.5
2023-03-03T11:59:21.254Z,21.5
2023-03-03T12:05:16.901Z,21.5
2023-03-03T12:11:16.667Z,21.5
2023-03-03T12:17:12.323Z,21.5
2023-03-03T12:23:01.108Z,21.5
2023-03-03T12:28:59.094Z,21.5
2023-03-03T12:34:53.571Z,21.5
2023-03-03T12:41:01.406Z,21.5
2023-03-03T12:46:54.107Z,21.5
2023-03-03T12:52:59.374Z,21.5
2023-03-03T12:58:52.377Z,21.5
2023-03-03T13:04:51.225Z,21.5
2023-03-03T13:10:44.223Z,21.5
2023-03-03T13:17:02.756Z,21.5
2023-03-03T13:22:56.446Z,21.4
2023-03-03T13:28:49.954Z,21.5
2023-03-03T13:34:44.941Z,21.5
2023-03-03T13:40:22.784Z,21.4
2023-03-03T13:46:15.401Z,21.4
2023-03-03T13:52:08.370Z,21.5
2023-03-03T13:58:01.068Z,21.4
2023-03-03T14:03:55.627Z,21.4
2023-03-03T14:09:49.653Z,21.4
2023-03-03T14:15:42.446Z,21.4
2023-03-03T14:21:36.700Z,21.4
2023-03-03T14:27:29.639Z,21.4
2023-03-03T14:33:39.081Z,21.4
2023-03-03T14:39:32.265Z,21.4
2023-03-03T14:45:29.690Z,21.4
2023-03-03T14:51:23.643Z,21.4
2023-03-03T14:57:18.341Z,21.4
2023-03-03T15:02:56.104Z,21.4
2023-03-03T15:08:52.066Z,21.4
2023-03-03T15:14:30.805Z,21.4
2023-03-03T15:20:08.384Z,21.4
2023-03-03T15:25:59.444Z,21.4
2023-03-03T15:31:37.719Z,21.4
2023-03-03T15:37:18.245Z,21.4
2023-03-03T15:42:54.089Z,21.4
2023-03-03T15:48:33.576Z,21.4
2023-03-03T15:54:20.955Z,21.4
2023-03-03T16:00:13.305Z,21.4
2023-03-03T16:05:51.202Z,21.4
2023-03-03T16:11:44.650Z,21.4
2023-03-03T16:17:38.247Z,21.4
2023-03-03T16:23:32.277Z,21.4
2023-03-03T16:29:10.902Z,21.4
2023-03-03T16:35:04.965Z,21.4
2023-03-03T16:40:59.409Z,21.4
2023-03-03T16:46:52.371Z,21.4
2023-03-03T16:52:28.262Z,21.4
2023-03-03T16:58:05.428Z,21.4
2023-03-03T17:03:58.849Z,21.4
2023-03-03T17:10:04.118Z,21.4
2023-03-03T17:15:26.036Z,21.4
2023-03-03T17:21:32.176Z,21.4
2023-03-03T17:27:25.863Z,21.4
2023-03-03T17:33:19.607Z,21.4
2023-03-03T17:38:58.429Z,21.4
2023-03-03T17:44:53.674Z,21.4
2023-03-03T17:50:45.855Z,21.4
2023-03-03T17:56:39.374Z,21.4
2023-03-03T18:02:31.998Z,21.4
2023-03-03T18:08:27.766Z,21.3
2023-03-03T18:14:17.284Z,21.4
2023-03-03T18:20:09.286Z,21.3
2023-03-03T18:26:05.129Z,21.4
2023-03-03T18:31:59.014Z,21.3
2023-03-03T18:37:51.712Z,21.3
2023-03-03T18:43:43.912Z,21.3
2023-03-03T18:49:37.591Z,21.3
2023-03-03T18:55:29.367Z,21.3
2023-03-03T19:00:50.495Z,21.3
2023-03-03T19:06:44.789Z,21.3
2023-03-03T19:12:22.549Z,21.3
2023-03-03T19:17:59.141Z,21.3
2023-03-03T19:23:55.143Z,21.3
2023-03-03T19:29:47.398Z,21.3
2023-03-03T19:35:41.402Z,21.3
2023-03-03T19:41:38.687Z,21.3
2023-03-03T19:47:31.807Z,21.3
2023-03-03T19:53:23.936Z,21.3
2023-03-03T19:59:16.914Z,21.3
2023-03-03T20:05:09.461Z,21.3
2023-03-03T20:11:03.056Z,21.3
2023-03-03T20:16:58.212Z,21.3
2023-03-03T20:22:49.071Z,21.3
2023-03-03T20:28:42.758Z,21.3
2023-03-03T20:34:36.409Z,21.3
2023-03-03T20:40:13.185Z,21.3
2023-03-03T20:46:06.169Z,21.3
2023-03-03T20:51:59.987Z,21.3
2023-03-03T20:57:51.843Z,21.3
2023-03-03T21:03:43.206Z,21.3
2023-03-03T21:09:05.467Z,21.3
2023-03-03T21:14:58.390Z,21.3
2023-03-03T21:20:53.698Z,21.2
2023-03-03T21:26:33.634Z,21.2
2023-03-03T21:32:28.172Z,21.3
2023-03-03T21:38:22.920Z,21.2
2023-03-03T21:44:16.690Z,21.3
2023-03-03T21:49:53.957Z,21.3
2023-03-03T21:55:31.196Z,21.3
2023-03-03T22:01:25.051Z,21.3
2023-03-03T22:07:19.177Z,21.2
2023-03-03T22:13:11.785Z,21.2
2023-03-03T22:19:05.587Z,21.2
2023-03-03T22:24:57.913Z,21.2
2023-03-03T22:30:50.917Z,21.2
2023-03-03T22:36:45.640Z,21.2
2023-03-03T22:42:37.968Z,21.2
2023-03-03T22:48:29.651Z,21.2
2023-03-03T22:54:21.880Z,21.2
2023-03-03T23:00:14.567Z,21.3
2023-03-03T23:06:07.911Z,21.2
2023-03-03T23:11:45.596Z,21.2
2023-03-03T23:17:38.233Z,21.2
2023-03-03T23:23:15.283Z,21.2
2023-03-03T23:29:07.587Z,21.2
2023-03-03T23:34:44.051Z,21.2
2023-03-03T23:40:35.886Z,21.2
2023-03-03T23:46:28.971Z,21.2
2023-03-03T23:52:22.044Z,21.2
2023-03-03T23:58:14.434Z,21.2
